sensor_id;sensor_type;location;lat;lon;timestamp;P1;durP1;ratioP1;P2;durP2;ratioP2
1390;SDS011;690;51.454;7.194;2023-07-29T00:01:12;4.37;;;3.17;;
1390;SDS011;690;51.454;7.194;2023-07-29T00:03:39;4.13;;;3.50;;
1390;SDS011;690;51.454;7.194;2023-07-29T00:06:07;3.23;;;3.03;;
1390;SDS011;690;51.454;7.194;2023-07-29T00:08:34;2.90;;;2.70;;
1390;SDS011;690;51.454;7.194;2023-07-29T00:11:02;2.80;;;2.60;;
1390;SDS011;690;51.454;7.194;2023-07-29T00:13:29;3.13;;;2.93;;
1390;SDS011;690;51.454;7.194;2023-07-29T00:15:57;3.40;;;2.90;;
1390;SDS011;690;51.454;7.194;2023-07-29T00:18:24;3.93;;;3.53;;
1390;SDS011;690;51.454;7.194;2023-07-29T00:20:51;4.47;;;3.23;;
1390;SDS011;690;51.454;7.194;2023-07-29T00:23:17;4.10;;;3.57;;
1390;SDS011;690;51.454;7.194;2023-07-29T00:25:45;4.00;;;3.30;;
1390;SDS011;690;51.454;7.194;2023-07-29T00:28:13;4.57;;;3.57;;
1390;SDS011;690;51.454;7.194;2023-07-29T00:30:40;3.97;;;3.57;;
1390;SDS011;690;51.454;7.194;2023-07-29T00:33:07;4.67;;;3.40;;
1390;SDS011;690;51.454;7.194;2023-07-29T00:35:34;4.17;;;3.77;;
1390;SDS011;690;51.454;7.194;2023-07-29T00:38:01;4.20;;;3.90;;
1390;SDS011;690;51.454;7.194;2023-07-29T00:40:28;4.20;;;3.67;;
1390;SDS011;690;51.454;7.194;2023-07-29T00:42:56;4.57;;;4.17;;
1390;SDS011;690;51.454;7.194;2023-07-29T00:45:24;5.73;;;4.27;;
1390;SDS011;690;51.454;7.194;2023-07-29T00:47:53;4.70;;;4.30;;
1390;SDS011;690;51.454;7.194;2023-07-29T00:50:20;5.50;;;4.80;;
1390;SDS011;690;51.454;7.194;2023-07-29T00:52:48;6.23;;;4.97;;
1390;SDS011;690;51.454;7.194;2023-07-29T00:55:15;5.57;;;5.07;;
1390;SDS011;690;51.454;7.194;2023-07-29T00:57:43;5.00;;;4.53;;
1390;SDS011;690;51.454;7.194;2023-07-29T01:00:13;5.20;;;4.77;;
1390;SDS011;690;51.454;7.194;2023-07-29T01:02:42;5.33;;;4.57;;
1390;SDS011;690;51.454;7.194;2023-07-29T01:05:10;6.00;;;4.93;;
1390;SDS011;690;51.454;7.194;2023-07-29T01:07:39;5.20;;;4.80;;
1390;SDS011;690;51.454;7.194;2023-07-29T01:10:15;6.07;;;5.57;;
1390;SDS011;690;51.454;7.194;2023-07-29T01:12:54;5.63;;;5.23;;
1390;SDS011;690;51.454;7.194;2023-07-29T01:15:28;5.43;;;4.90;;
1390;SDS011;690;51.454;7.194;2023-07-29T01:18:02;5.60;;;5.10;;
1390;SDS011;690;51.454;7.194;2023-07-29T01:20:32;5.50;;;5.00;;
1390;SDS011;690;51.454;7.194;2023-07-29T01:23:00;6.00;;;5.50;;
1390;SDS011;690;51.454;7.194;2023-07-29T01:25:28;5.93;;;5.47;;
1390;SDS011;690;51.454;7.194;2023-07-29T01:27:55;6.70;;;6.10;;
1390;SDS011;690;51.454;7.194;2023-07-29T01:30:25;6.37;;;5.83;;
1390;SDS011;690;51.454;7.194;2023-07-29T01:32:59;6.40;;;5.80;;
1390;SDS011;690;51.454;7.194;2023-07-29T01:35:31;5.30;;;4.90;;
1390;SDS011;690;51.454;7.194;2023-07-29T01:38:04;5.93;;;5.40;;
1390;SDS011;690;51.454;7.194;2023-07-29T01:40:37;6.33;;;5.73;;
1390;SDS011;690;51.454;7.194;2023-07-29T01:43:04;6.13;;;5.50;;
1390;SDS011;690;51.454;7.194;2023-07-29T01:45:32;6.70;;;5.60;;
1390;SDS011;690;51.454;7.194;2023-07-29T01:48:03;6.30;;;5.80;;
1390;SDS011;690;51.454;7.194;2023-07-29T01:50:30;5.33;;;4.93;;
1390;SDS011;690;51.454;7.194;2023-07-29T01:52:57;6.03;;;5.53;;
1390;SDS011;690;51.454;7.194;2023-07-29T01:55:24;5.90;;;5.40;;
1390;SDS011;690;51.454;7.194;2023-07-29T01:57:52;5.00;;;4.60;;
1390;SDS011;690;51.454;7.194;2023-07-29T02:00:19;5.50;;;4.47;;
1390;SDS011;690;51.454;7.194;2023-07-29T02:02:47;5.27;;;4.50;;
1390;SDS011;690;51.454;7.194;2023-07-29T02:05:14;5.60;;;5.10;;
1390;SDS011;690;51.454;7.194;2023-07-29T02:07:41;4.80;;;4.43;;
1390;SDS011;690;51.454;7.194;2023-07-29T02:10:08;4.57;;;4.17;;
1390;SDS011;690;51.454;7.194;2023-07-29T02:12:35;5.20;;;4.80;;
1390;SDS011;690;51.454;7.194;2023-07-29T02:15:03;6.00;;;4.50;;
1390;SDS011;690;51.454;7.194;2023-07-29T02:17:36;4.30;;;4.00;;
1390;SDS011;690;51.454;7.194;2023-07-29T02:20:03;4.40;;;3.90;;
1390;SDS011;690;51.454;7.194;2023-07-29T02:22:30;6.40;;;4.30;;
1390;SDS011;690;51.454;7.194;2023-07-29T02:24:59;5.23;;;4.20;;
1390;SDS011;690;51.454;7.194;2023-07-29T02:27:26;4.30;;;3.90;;
1390;SDS011;690;51.454;7.194;2023-07-29T02:29:53;4.07;;;3.70;;
1390;SDS011;690;51.454;7.194;2023-07-29T02:32:22;4.30;;;3.93;;
1390;SDS011;690;51.454;7.194;2023-07-29T02:34:49;3.70;;;3.50;;
1390;SDS011;690;51.454;7.194;2023-07-29T02:37:16;4.20;;;3.80;;
1390;SDS011;690;51.454;7.194;2023-07-29T02:39:44;4.73;;;4.20;;
1390;SDS011;690;51.454;7.194;2023-07-29T02:42:11;3.97;;;3.67;;
1390;SDS011;690;51.454;7.194;2023-07-29T02:44:38;4.27;;;3.87;;
1390;SDS011;690;51.454;7.194;2023-07-29T02:47:06;4.10;;;3.80;;
1390;SDS011;690;51.454;7.194;2023-07-29T02:49:34;4.00;;;3.30;;
1390;SDS011;690;51.454;7.194;2023-07-29T02:52:01;4.10;;;3.70;;
1390;SDS011;690;51.454;7.194;2023-07-29T02:54:28;5.70;;;4.40;;
1390;SDS011;690;51.454;7.194;2023-07-29T02:56:55;4.30;;;4.00;;
1390;SDS011;690;51.454;7.194;2023-07-29T02:59:21;3.47;;;3.17;;
1390;SDS011;690;51.454;7.194;2023-07-29T03:01:48;3.63;;;3.33;;
1390;SDS011;690;51.454;7.194;2023-07-29T03:04:15;4.20;;;3.80;;
1390;SDS011;690;51.454;7.194;2023-07-29T03:06:44;3.73;;;3.43;;
1390;SDS011;690;51.454;7.194;2023-07-29T03:09:13;5.77;;;3.90;;
1390;SDS011;690;51.454;7.194;2023-07-29T03:11:40;3.57;;;3.27;;
1390;SDS011;690;51.454;7.194;2023-07-29T03:14:07;6.00;;;3.33;;
1390;SDS011;690;51.454;7.194;2023-07-29T03:16:33;4.00;;;3.70;;
1390;SDS011;690;51.454;7.194;2023-07-29T03:19:00;3.33;;;3.10;;
1390;SDS011;690;51.454;7.194;2023-07-29T03:21:27;3.83;;;3.53;;
1390;SDS011;690;51.454;7.194;2023-07-29T03:23:56;4.30;;;3.43;;
1390;SDS011;690;51.454;7.194;2023-07-29T03:26:22;3.23;;;2.93;;
1390;SDS011;690;51.454;7.194;2023-07-29T03:28:50;4.20;;;3.80;;
1390;SDS011;690;51.454;7.194;2023-07-29T03:31:17;4.20;;;3.70;;
1390;SDS011;690;51.454;7.194;2023-07-29T03:33:45;5.40;;;3.80;;
1390;SDS011;690;51.454;7.194;2023-07-29T03:36:12;5.27;;;3.70;;
1390;SDS011;690;51.454;7.194;2023-07-29T03:38:39;3.87;;;3.57;;
1390;SDS011;690;51.454;7.194;2023-07-29T03:41:08;3.73;;;3.43;;
1390;SDS011;690;51.454;7.194;2023-07-29T03:43:35;3.73;;;3.43;;
1390;SDS011;690;51.454;7.194;2023-07-29T03:46:02;4.43;;;3.40;;
1390;SDS011;690;51.454;7.194;2023-07-29T03:48:29;4.10;;;3.80;;
1390;SDS011;690;51.454;7.194;2023-07-29T03:50:56;4.27;;;3.87;;
1390;SDS011;690;51.454;7.194;2023-07-29T03:53:23;7.23;;;4.37;;
1390;SDS011;690;51.454;7.194;2023-07-29T03:55:50;4.50;;;4.20;;
1390;SDS011;690;51.454;7.194;2023-07-29T03:58:18;4.20;;;3.80;;
1390;SDS011;690;51.454;7.194;2023-07-29T04:00:45;4.77;;;4.27;;
1390;SDS011;690;51.454;7.194;2023-07-29T04:03:12;7.40;;;5.03;;
1390;SDS011;690;51.454;7.194;2023-07-29T04:05:39;5.27;;;4.77;;
1390;SDS011;690;51.454;7.194;2023-07-29T04:08:06;5.20;;;4.70;;
1390;SDS011;690;51.454;7.194;2023-07-29T04:10:33;5.67;;;4.80;;
1390;SDS011;690;51.454;7.194;2023-07-29T04:13:00;6.17;;;4.97;;
1390;SDS011;690;51.454;7.194;2023-07-29T04:15:28;9.20;;;5.73;;
1390;SDS011;690;51.454;7.194;2023-07-29T04:18:00;6.47;;;4.80;;
1390;SDS011;690;51.454;7.194;2023-07-29T04:20:26;7.90;;;5.40;;
1390;SDS011;690;51.454;7.194;2023-07-29T04:22:53;5.37;;;4.87;;
1390;SDS011;690;51.454;7.194;2023-07-29T04:25:20;5.63;;;5.13;;
1390;SDS011;690;51.454;7.194;2023-07-29T04:27:47;5.30;;;4.90;;
1390;SDS011;690;51.454;7.194;2023-07-29T04:30:14;6.00;;;5.33;;
1390;SDS011;690;51.454;7.194;2023-07-29T04:32:43;5.60;;;5.10;;
1390;SDS011;690;51.454;7.194;2023-07-29T04:35:10;7.77;;;5.60;;
1390;SDS011;690;51.454;7.194;2023-07-29T04:37:37;9.00;;;6.23;;
1390;SDS011;690;51.454;7.194;2023-07-29T04:40:04;8.43;;;5.43;;
1390;SDS011;690;51.454;7.194;2023-07-29T04:42:32;7.53;;;5.80;;
1390;SDS011;690;51.454;7.194;2023-07-29T04:44:59;6.73;;;6.13;;
1390;SDS011;690;51.454;7.194;2023-07-29T04:47:26;7.10;;;6.00;;
1390;SDS011;690;51.454;7.194;2023-07-29T04:49:54;6.80;;;6.07;;
1390;SDS011;690;51.454;7.194;2023-07-29T04:52:21;7.50;;;6.20;;
1390;SDS011;690;51.454;7.194;2023-07-29T04:54:48;7.87;;;6.10;;
1390;SDS011;690;51.454;7.194;2023-07-29T04:57:15;8.87;;;7.00;;
1390;SDS011;690;51.454;7.194;2023-07-29T04:59:42;7.80;;;7.10;;
1390;SDS011;690;51.454;7.194;2023-07-29T05:02:08;6.43;;;5.83;;
1390;SDS011;690;51.454;7.194;2023-07-29T05:04:35;6.57;;;5.80;;
1390;SDS011;690;51.454;7.194;2023-07-29T05:07:04;7.53;;;6.80;;
1390;SDS011;690;51.454;7.194;2023-07-29T05:09:31;7.60;;;6.10;;
1390;SDS011;690;51.454;7.194;2023-07-29T05:11:58;6.37;;;5.77;;
1390;SDS011;690;51.454;7.194;2023-07-29T05:14:25;6.83;;;6.07;;
1390;SDS011;690;51.454;7.194;2023-07-29T05:16:52;6.93;;;5.90;;
1390;SDS011;690;51.454;7.194;2023-07-29T05:19:18;5.80;;;4.83;;
1390;SDS011;690;51.454;7.194;2023-07-29T05:21:45;7.50;;;5.07;;
1390;SDS011;690;51.454;7.194;2023-07-29T05:24:13;5.73;;;5.30;;
1390;SDS011;690;51.454;7.194;2023-07-29T05:26:40;7.37;;;6.63;;
1390;SDS011;690;51.454;7.194;2023-07-29T05:29:07;6.37;;;5.77;;
1390;SDS011;690;51.454;7.194;2023-07-29T05:31:35;8.30;;;7.37;;
1390;SDS011;690;51.454;7.194;2023-07-29T05:34:01;7.77;;;6.97;;
1390;SDS011;690;51.454;7.194;2023-07-29T05:36:28;9.73;;;8.47;;
1390;SDS011;690;51.454;7.194;2023-07-29T05:38:55;9.83;;;8.37;;
1390;SDS011;690;51.454;7.194;2023-07-29T05:41:24;13.23;;;8.73;;
1390;SDS011;690;51.454;7.194;2023-07-29T05:43:51;9.43;;;8.53;;
1390;SDS011;690;51.454;7.194;2023-07-29T05:46:18;10.60;;;9.60;;
1390;SDS011;690;51.454;7.194;2023-07-29T05:48:45;11.20;;;9.40;;
1390;SDS011;690;51.454;7.194;2023-07-29T05:51:11;10.57;;;9.53;;
1390;SDS011;690;51.454;7.194;2023-07-29T05:53:38;10.43;;;8.50;;
1390;SDS011;690;51.454;7.194;2023-07-29T05:56:05;10.23;;;9.13;;
1390;SDS011;690;51.454;7.194;2023-07-29T05:58:33;10.10;;;9.27;;
1390;SDS011;690;51.454;7.194;2023-07-29T06:01:00;10.33;;;9.43;;
1390;SDS011;690;51.454;7.194;2023-07-29T06:03:27;10.60;;;9.60;;
1390;SDS011;690;51.454;7.194;2023-07-29T06:05:54;11.30;;;10.20;;
1390;SDS011;690;51.454;7.194;2023-07-29T06:08:21;13.30;;;12.00;;
1390;SDS011;690;51.454;7.194;2023-07-29T06:10:48;12.87;;;11.60;;
1390;SDS011;690;51.454;7.194;2023-07-29T06:13:14;12.67;;;11.43;;
1390;SDS011;690;51.454;7.194;2023-07-29T06:15:43;10.53;;;9.63;;
1390;SDS011;690;51.454;7.194;2023-07-29T06:18:10;11.33;;;10.30;;
1390;SDS011;690;51.454;7.194;2023-07-29T06:20:37;9.23;;;8.50;;
1390;SDS011;690;51.454;7.194;2023-07-29T06:23:04;10.40;;;7.93;;
1390;SDS011;690;51.454;7.194;2023-07-29T06:25:30;8.83;;;7.37;;
1390;SDS011;690;51.454;7.194;2023-07-29T06:27:57;7.00;;;6.30;;
1390;SDS011;690;51.454;7.194;2023-07-29T06:30:24;8.00;;;6.53;;
1390;SDS011;690;51.454;7.194;2023-07-29T06:32:53;6.70;;;6.00;;
1390;SDS011;690;51.454;7.194;2023-07-29T06:35:19;6.00;;;5.40;;
1390;SDS011;690;51.454;7.194;2023-07-29T06:37:46;6.23;;;5.63;;
1390;SDS011;690;51.454;7.194;2023-07-29T06:40:13;6.67;;;5.93;;
1390;SDS011;690;51.454;7.194;2023-07-29T06:42:40;5.63;;;5.13;;
1390;SDS011;690;51.454;7.194;2023-07-29T06:45:07;5.53;;;4.60;;
1390;SDS011;690;51.454;7.194;2023-07-29T06:47:37;4.27;;;3.87;;
1390;SDS011;690;51.454;7.194;2023-07-29T06:50:06;6.23;;;3.57;;
1390;SDS011;690;51.454;7.194;2023-07-29T06:52:33;4.17;;;3.70;;
1390;SDS011;690;51.454;7.194;2023-07-29T06:55:01;5.20;;;3.70;;
1390;SDS011;690;51.454;7.194;2023-07-29T06:57:29;4.00;;;3.00;;
1390;SDS011;690;51.454;7.194;2023-07-29T06:59:55;3.30;;;3.00;;
1390;SDS011;690;51.454;7.194;2023-07-29T07:02:22;2.97;;;2.57;;
1390;SDS011;690;51.454;7.194;2023-07-29T07:04:49;4.30;;;2.70;;
1390;SDS011;690;51.454;7.194;2023-07-29T07:07:17;4.07;;;3.00;;
1390;SDS011;690;51.454;7.194;2023-07-29T07:09:44;3.57;;;2.90;;
1390;SDS011;690;51.454;7.194;2023-07-29T07:12:11;3.07;;;2.77;;
1390;SDS011;690;51.454;7.194;2023-07-29T07:14:39;2.60;;;2.40;;
1390;SDS011;690;51.454;7.194;2023-07-29T07:17:06;3.47;;;2.50;;
1390;SDS011;690;51.454;7.194;2023-07-29T07:19:33;2.87;;;2.30;;
1390;SDS011;690;51.454;7.194;2023-07-29T07:22:00;2.70;;;2.50;;
1390;SDS011;690;51.454;7.194;2023-07-29T07:24:28;2.97;;;2.50;;
1390;SDS011;690;51.454;7.194;2023-07-29T07:26:55;3.17;;;2.30;;
1390;SDS011;690;51.454;7.194;2023-07-29T07:29:22;2.20;;;1.97;;
1390;SDS011;690;51.454;7.194;2023-07-29T07:31:50;2.70;;;2.50;;
1390;SDS011;690;51.454;7.194;2023-07-29T07:34:18;2.13;;;1.73;;
1390;SDS011;690;51.454;7.194;2023-07-29T07:36:45;5.43;;;2.47;;
1390;SDS011;690;51.454;7.194;2023-07-29T07:39:12;2.40;;;2.20;;
1390;SDS011;690;51.454;7.194;2023-07-29T07:41:45;2.60;;;2.40;;
1390;SDS011;690;51.454;7.194;2023-07-29T07:44:12;1.80;;;1.70;;
1390;SDS011;690;51.454;7.194;2023-07-29T07:46:42;2.17;;;1.97;;
1390;SDS011;690;51.454;7.194;2023-07-29T07:49:09;2.80;;;1.90;;
1390;SDS011;690;51.454;7.194;2023-07-29T07:51:37;2.83;;;1.93;;
1390;SDS011;690;51.454;7.194;2023-07-29T07:54:04;2.40;;;2.10;;
1390;SDS011;690;51.454;7.194;2023-07-29T07:56:31;3.87;;;2.57;;
1390;SDS011;690;51.454;7.194;2023-07-29T07:58:59;2.57;;;2.30;;
1390;SDS011;690;51.454;7.194;2023-07-29T08:01:26;2.77;;;1.90;;
1390;SDS011;690;51.454;7.194;2023-07-29T08:03:53;3.20;;;1.83;;
1390;SDS011;690;51.454;7.194;2023-07-29T08:06:20;2.20;;;2.00;;
1390;SDS011;690;51.454;7.194;2023-07-29T08:08:47;1.73;;;1.63;;
1390;SDS011;690;51.454;7.194;2023-07-29T08:11:14;3.70;;;1.67;;
1390;SDS011;690;51.454;7.194;2023-07-29T08:13:41;3.97;;;2.00;;
1390;SDS011;690;51.454;7.194;2023-07-29T08:16:09;2.60;;;2.40;;
1390;SDS011;690;51.454;7.194;2023-07-29T08:18:36;1.73;;;1.63;;
1390;SDS011;690;51.454;7.194;2023-07-29T08:21:03;1.90;;;1.70;;
1390;SDS011;690;51.454;7.194;2023-07-29T08:23:30;2.40;;;1.60;;
1390;SDS011;690;51.454;7.194;2023-07-29T08:25:58;1.70;;;1.60;;
1390;SDS011;690;51.454;7.194;2023-07-29T08:28:27;1.70;;;1.57;;
1390;SDS011;690;51.454;7.194;2023-07-29T08:30:54;1.60;;;1.50;;
1390;SDS011;690;51.454;7.194;2023-07-29T08:33:23;1.90;;;1.70;;
1390;SDS011;690;51.454;7.194;2023-07-29T08:35:50;2.10;;;1.63;;
1390;SDS011;690;51.454;7.194;2023-07-29T08:38:17;2.83;;;1.77;;
1390;SDS011;690;51.454;7.194;2023-07-29T08:40:45;2.37;;;1.87;;
1390;SDS011;690;51.454;7.194;2023-07-29T08:43:19;2.03;;;1.50;;
1390;SDS011;690;51.454;7.194;2023-07-29T08:45:50;1.77;;;1.40;;
1390;SDS011;690;51.454;7.194;2023-07-29T08:48:19;2.63;;;1.60;;
1390;SDS011;690;51.454;7.194;2023-07-29T08:50:55;6.30;;;1.50;;
1390;SDS011;690;51.454;7.194;2023-07-29T08:53:22;2.17;;;1.97;;
1390;SDS011;690;51.454;7.194;2023-07-29T08:55:49;1.63;;;1.40;;
1390;SDS011;690;51.454;7.194;2023-07-29T08:58:17;3.03;;;1.97;;
1390;SDS011;690;51.454;7.194;2023-07-29T09:00:46;1.83;;;1.73;;
1390;SDS011;690;51.454;7.194;2023-07-29T09:03:13;2.30;;;2.10;;
1390;SDS011;690;51.454;7.194;2023-07-29T09:05:42;2.90;;;2.57;;
1390;SDS011;690;51.454;7.194;2023-07-29T09:08:09;2.80;;;2.60;;
1390;SDS011;690;51.454;7.194;2023-07-29T09:10:36;2.73;;;2.20;;
1390;SDS011;690;51.454;7.194;2023-07-29T09:13:03;2.70;;;2.30;;
1390;SDS011;690;51.454;7.194;2023-07-29T09:15:31;2.43;;;2.23;;
1390;SDS011;690;51.454;7.194;2023-07-29T09:18:00;3.33;;;2.23;;
1390;SDS011;690;51.454;7.194;2023-07-29T09:20:35;2.27;;;2.07;;
1390;SDS011;690;51.454;7.194;2023-07-29T09:23:06;2.03;;;1.93;;
1390;SDS011;690;51.454;7.194;2023-07-29T09:25:34;3.50;;;1.80;;
1390;SDS011;690;51.454;7.194;2023-07-29T09:28:02;1.90;;;1.80;;
1390;SDS011;690;51.454;7.194;2023-07-29T09:30:34;1.97;;;1.60;;
1390;SDS011;690;51.454;7.194;2023-07-29T09:33:01;3.00;;;1.60;;
1390;SDS011;690;51.454;7.194;2023-07-29T09:35:29;3.27;;;2.30;;
1390;SDS011;690;51.454;7.194;2023-07-29T09:38:00;2.43;;;2.23;;
1390;SDS011;690;51.454;7.194;2023-07-29T09:40:33;2.37;;;2.17;;
1390;SDS011;690;51.454;7.194;2023-07-29T09:43:01;2.80;;;2.07;;
1390;SDS011;690;51.454;7.194;2023-07-29T09:45:29;1.90;;;1.70;;
1390;SDS011;690;51.454;7.194;2023-07-29T09:47:56;1.90;;;1.80;;
1390;SDS011;690;51.454;7.194;2023-07-29T09:50:24;2.37;;;2.07;;
1390;SDS011;690;51.454;7.194;2023-07-29T09:52:51;1.60;;;1.50;;
1390;SDS011;690;51.454;7.194;2023-07-29T09:55:19;3.63;;;1.80;;
1390;SDS011;690;51.454;7.194;2023-07-29T09:57:49;1.93;;;1.80;;
1390;SDS011;690;51.454;7.194;2023-07-29T10:00:20;2.40;;;1.87;;
1390;SDS011;690;51.454;7.194;2023-07-29T10:02:47;2.07;;;1.80;;
1390;SDS011;690;51.454;7.194;2023-07-29T10:05:15;2.07;;;1.87;;
1390;SDS011;690;51.454;7.194;2023-07-29T10:07:42;2.30;;;2.00;;
1390;SDS011;690;51.454;7.194;2023-07-29T10:10:09;1.90;;;1.77;;
1390;SDS011;690;51.454;7.194;2023-07-29T10:12:39;2.43;;;1.67;;
1390;SDS011;690;51.454;7.194;2023-07-29T10:15:09;1.70;;;1.60;;
1390;SDS011;690;51.454;7.194;2023-07-29T10:17:37;1.70;;;1.60;;
1390;SDS011;690;51.454;7.194;2023-07-29T10:20:05;3.00;;;1.80;;
1390;SDS011;690;51.454;7.194;2023-07-29T10:22:34;3.37;;;1.90;;
1390;SDS011;690;51.454;7.194;2023-07-29T10:25:03;2.70;;;1.70;;
1390;SDS011;690;51.454;7.194;2023-07-29T10:27:35;2.43;;;2.10;;
1390;SDS011;690;51.454;7.194;2023-07-29T10:30:11;3.23;;;2.00;;
1390;SDS011;690;51.454;7.194;2023-07-29T10:32:41;2.13;;;1.80;;
1390;SDS011;690;51.454;7.194;2023-07-29T10:35:08;3.43;;;2.00;;
1390;SDS011;690;51.454;7.194;2023-07-29T10:37:36;2.60;;;1.83;;
1390;SDS011;690;51.454;7.194;2023-07-29T10:40:06;1.50;;;1.40;;
1390;SDS011;690;51.454;7.194;2023-07-29T10:42:34;2.60;;;2.10;;
1390;SDS011;690;51.454;7.194;2023-07-29T10:47:54;1.90;;;1.70;;
1390;SDS011;690;51.454;7.194;2023-07-29T10:50:21;1.70;;;1.60;;
1390;SDS011;690;51.454;7.194;2023-07-29T10:52:49;3.00;;;2.13;;
1390;SDS011;690;51.454;7.194;2023-07-29T10:55:24;1.77;;;1.40;;
1390;SDS011;690;51.454;7.194;2023-07-29T10:57:55;2.20;;;2.00;;
1390;SDS011;690;51.454;7.194;2023-07-29T11:00:32;1.70;;;1.23;;
1390;SDS011;690;51.454;7.194;2023-07-29T11:03:00;2.70;;;1.87;;
1390;SDS011;690;51.454;7.194;2023-07-29T11:05:41;2.80;;;1.90;;
1390;SDS011;690;51.454;7.194;2023-07-29T11:08:16;2.07;;;1.90;;
1390;SDS011;690;51.454;7.194;2023-07-29T11:10:57;4.33;;;2.30;;
1390;SDS011;690;51.454;7.194;2023-07-29T11:13:26;2.27;;;1.90;;
1390;SDS011;690;51.454;7.194;2023-07-29T11:15:54;1.97;;;1.77;;
1390;SDS011;690;51.454;7.194;2023-07-29T11:18:24;3.47;;;2.40;;
1390;SDS011;690;51.454;7.194;2023-07-29T11:20:54;1.87;;;1.77;;
1390;SDS011;690;51.454;7.194;2023-07-29T11:23:26;1.47;;;1.37;;
1390;SDS011;690;51.454;7.194;2023-07-29T11:25:57;2.87;;;2.17;;
1390;SDS011;690;51.454;7.194;2023-07-29T11:28:24;2.40;;;1.80;;
1390;SDS011;690;51.454;7.194;2023-07-29T11:30:52;2.13;;;1.93;;
1390;SDS011;690;51.454;7.194;2023-07-29T11:33:20;2.50;;;2.30;;
1390;SDS011;690;51.454;7.194;2023-07-29T11:35:50;4.80;;;2.77;;
1390;SDS011;690;51.454;7.194;2023-07-29T11:38:18;2.60;;;2.40;;
1390;SDS011;690;51.454;7.194;2023-07-29T11:40:56;3.37;;;2.23;;
1390;SDS011;690;51.454;7.194;2023-07-29T11:43:24;3.83;;;2.80;;
1390;SDS011;690;51.454;7.194;2023-07-29T11:45:52;2.73;;;2.53;;
1390;SDS011;690;51.454;7.194;2023-07-29T11:48:25;3.63;;;2.63;;
1390;SDS011;690;51.454;7.194;2023-07-29T11:50:54;3.00;;;2.10;;
1390;SDS011;690;51.454;7.194;2023-07-29T11:53:21;3.00;;;2.37;;
1390;SDS011;690;51.454;7.194;2023-07-29T11:55:50;2.40;;;2.20;;
1390;SDS011;690;51.454;7.194;2023-07-29T11:58:18;2.77;;;2.10;;
1390;SDS011;690;51.454;7.194;2023-07-29T12:00:45;2.30;;;2.10;;
1390;SDS011;690;51.454;7.194;2023-07-29T12:03:12;3.33;;;1.90;;
1390;SDS011;690;51.454;7.194;2023-07-29T12:05:42;3.03;;;1.87;;
1390;SDS011;690;51.454;7.194;2023-07-29T12:08:11;1.90;;;1.77;;
1390;SDS011;690;51.454;7.194;2023-07-29T12:10:38;2.37;;;1.80;;
1390;SDS011;690;51.454;7.194;2023-07-29T12:13:05;5.70;;;2.10;;
1390;SDS011;690;51.454;7.194;2023-07-29T12:15:34;1.60;;;1.50;;
1390;SDS011;690;51.454;7.194;2023-07-29T12:18:04;1.90;;;1.60;;
1390;SDS011;690;51.454;7.194;2023-07-29T12:20:30;1.80;;;1.60;;
1390;SDS011;690;51.454;7.194;2023-07-29T12:22:59;2.27;;;2.07;;
1390;SDS011;690;51.454;7.194;2023-07-29T12:25:29;1.50;;;1.40;;
1390;SDS011;690;51.454;7.194;2023-07-29T12:27:56;1.87;;;1.77;;
1390;SDS011;690;51.454;7.194;2023-07-29T12:30:28;1.90;;;1.53;;
1390;SDS011;690;51.454;7.194;2023-07-29T12:32:55;2.20;;;1.80;;
1390;SDS011;690;51.454;7.194;2023-07-29T12:35:21;3.30;;;1.70;;
1390;SDS011;690;51.454;7.194;2023-07-29T12:37:57;2.47;;;1.73;;
1390;SDS011;690;51.454;7.194;2023-07-29T12:40:25;3.30;;;2.13;;
1390;SDS011;690;51.454;7.194;2023-07-29T12:42:54;2.60;;;1.53;;
1390;SDS011;690;51.454;7.194;2023-07-29T12:45:22;2.37;;;1.70;;
1390;SDS011;690;51.454;7.194;2023-07-29T12:47:52;3.27;;;2.10;;
1390;SDS011;690;51.454;7.194;2023-07-29T12:50:19;2.50;;;1.73;;
1390;SDS011;690;51.454;7.194;2023-07-29T12:52:46;2.77;;;1.80;;
1390;SDS011;690;51.454;7.194;2023-07-29T12:55:13;2.20;;;2.00;;
1390;SDS011;690;51.454;7.194;2023-07-29T12:57:41;2.00;;;1.80;;
1390;SDS011;690;51.454;7.194;2023-07-29T13:00:10;2.70;;;2.30;;
1390;SDS011;690;51.454;7.194;2023-07-29T13:02:38;3.80;;;2.23;;
1390;SDS011;690;51.454;7.194;2023-07-29T13:05:06;2.17;;;1.83;;
1390;SDS011;690;51.454;7.194;2023-07-29T13:07:35;2.30;;;2.10;;
1390;SDS011;690;51.454;7.194;2023-07-29T13:10:03;2.50;;;2.30;;
1390;SDS011;690;51.454;7.194;2023-07-29T13:12:30;2.70;;;2.50;;
1390;SDS011;690;51.454;7.194;2023-07-29T13:14:57;2.53;;;2.10;;
1390;SDS011;690;51.454;7.194;2023-07-29T13:17:25;3.03;;;2.20;;
1390;SDS011;690;51.454;7.194;2023-07-29T13:19:52;2.10;;;2.00;;
1390;SDS011;690;51.454;7.194;2023-07-29T13:22:19;2.00;;;1.80;;
1390;SDS011;690;51.454;7.194;2023-07-29T13:24:46;2.47;;;2.20;;
1390;SDS011;690;51.454;7.194;2023-07-29T13:27:13;2.47;;;1.90;;
1390;SDS011;690;51.454;7.194;2023-07-29T13:29:40;1.60;;;1.50;;
1390;SDS011;690;51.454;7.194;2023-07-29T13:32:08;4.10;;;2.10;;
1390;SDS011;690;51.454;7.194;2023-07-29T13:34:37;2.10;;;1.90;;
1390;SDS011;690;51.454;7.194;2023-07-29T13:37:05;2.17;;;1.97;;
1390;SDS011;690;51.454;7.194;2023-07-29T13:39:32;2.30;;;2.10;;
1390;SDS011;690;51.454;7.194;2023-07-29T13:41:59;2.43;;;2.23;;
1390;SDS011;690;51.454;7.194;2023-07-29T13:44:26;1.87;;;1.77;;
1390;SDS011;690;51.454;7.194;2023-07-29T13:46:52;2.87;;;2.23;;
1390;SDS011;690;51.454;7.194;2023-07-29T13:49:19;5.47;;;2.40;;
1390;SDS011;690;51.454;7.194;2023-07-29T13:51:47;2.73;;;2.20;;
1390;SDS011;690;51.454;7.194;2023-07-29T13:54:14;2.53;;;2.33;;
1390;SDS011;690;51.454;7.194;2023-07-29T13:56:41;3.60;;;1.90;;
1390;SDS011;690;51.454;7.194;2023-07-29T13:59:08;2.73;;;2.50;;
1390;SDS011;690;51.454;7.194;2023-07-29T14:01:35;2.03;;;1.83;;
1390;SDS011;690;51.454;7.194;2023-07-29T14:04:02;2.53;;;2.17;;
1390;SDS011;690;51.454;7.194;2023-07-29T14:06:29;3.53;;;2.30;;
1390;SDS011;690;51.454;7.194;2023-07-29T14:08:57;2.90;;;1.93;;
1390;SDS011;690;51.454;7.194;2023-07-29T14:11:24;3.07;;;2.07;;
1390;SDS011;690;51.454;7.194;2023-07-29T14:13:51;3.03;;;1.93;;
1390;SDS011;690;51.454;7.194;2023-07-29T14:16:18;2.50;;;2.30;;
1390;SDS011;690;51.454;7.194;2023-07-29T14:18:45;2.43;;;2.23;;
1390;SDS011;690;51.454;7.194;2023-07-29T14:21:12;4.13;;;3.73;;
1390;SDS011;690;51.454;7.194;2023-07-29T14:23:39;3.00;;;2.80;;
1390;SDS011;690;51.454;7.194;2023-07-29T14:26:07;3.63;;;2.80;;
1390;SDS011;690;51.454;7.194;2023-07-29T14:28:34;5.13;;;2.63;;
1390;SDS011;690;51.454;7.194;2023-07-29T14:31:01;4.30;;;3.23;;
1390;SDS011;690;51.454;7.194;2023-07-29T14:33:28;6.60;;;3.07;;
1390;SDS011;690;51.454;7.194;2023-07-29T14:35:55;3.40;;;2.60;;
1390;SDS011;690;51.454;7.194;2023-07-29T14:38:22;4.60;;;3.00;;
1390;SDS011;690;51.454;7.194;2023-07-29T14:40:49;2.83;;;2.10;;
1390;SDS011;690;51.454;7.194;2023-07-29T14:43:20;3.33;;;2.40;;
1390;SDS011;690;51.454;7.194;2023-07-29T14:45:47;3.43;;;2.00;;
1390;SDS011;690;51.454;7.194;2023-07-29T14:48:14;7.97;;;3.20;;
1390;SDS011;690;51.454;7.194;2023-07-29T14:50:41;4.03;;;1.70;;
1390;SDS011;690;51.454;7.194;2023-07-29T14:53:08;4.50;;;2.30;;
1390;SDS011;690;51.454;7.194;2023-07-29T14:55:36;7.20;;;3.17;;
1390;SDS011;690;51.454;7.194;2023-07-29T14:58:03;4.30;;;2.20;;
1390;SDS011;690;51.454;7.194;2023-07-29T15:00:31;6.70;;;2.07;;
1390;SDS011;690;51.454;7.194;2023-07-29T15:02:59;3.80;;;1.90;;
1390;SDS011;690;51.454;7.194;2023-07-29T15:05:26;3.17;;;2.57;;
1390;SDS011;690;51.454;7.194;2023-07-29T15:07:52;3.90;;;2.00;;
1390;SDS011;690;51.454;7.194;2023-07-29T15:10:19;4.47;;;2.30;;
1390;SDS011;690;51.454;7.194;2023-07-29T15:12:47;3.00;;;1.87;;
1390;SDS011;690;51.454;7.194;2023-07-29T15:15:14;1.40;;;1.30;;
1390;SDS011;690;51.454;7.194;2023-07-29T15:17:42;2.20;;;1.80;;
1390;SDS011;690;51.454;7.194;2023-07-29T15:20:09;3.30;;;3.00;;
1390;SDS011;690;51.454;7.194;2023-07-29T15:22:37;2.50;;;2.30;;
1390;SDS011;690;51.454;7.194;2023-07-29T15:25:04;2.70;;;2.30;;
1390;SDS011;690;51.454;7.194;2023-07-29T15:27:31;2.10;;;1.70;;
1390;SDS011;690;51.454;7.194;2023-07-29T15:29:58;2.73;;;2.30;;
1390;SDS011;690;51.454;7.194;2023-07-29T15:32:25;3.30;;;2.37;;
1390;SDS011;690;51.454;7.194;2023-07-29T15:34:54;3.40;;;2.10;;
1390;SDS011;690;51.454;7.194;2023-07-29T15:37:21;2.57;;;1.93;;